Saint-Pacome, Canada
Current Conditions -  °F | °C
As of 2:53 PM on Tuesday 21 Oct 2014 (Local Time) from KFVE Reporting Station
Overcast Overcast  
Wind Chill: 42°   Ceiling: 8000
Heat Index: 44°   Visibility: 10mi
Dew Point: 23°   Wind: 5mph
Humidity: 43%   Direction: 210°SSW
Pressure: 30.12"   Gusts: NA
Location:  47.42°N, 69.95°W
Report Text: KFVE 211853Z AUTO 21004KT 10SM BKN080 OVC110 07/M05 A3012 RMK AO2 SLP209 T00671050
Loading
Personal Weather Stations






























Interactive Weather Map New forecast layout! Learn more

10-Day Weather Forecast

Advertisements
Track Severe Weather on mobile